HRHO2: North Canadian River

                                SHEF ID:       HRHO2     North Canadian River near Harrah
STATION TYPE:
Regulating: Stage = 15.00, Flow = 8563

STAGE RIV-FLOW WTR-TEMP DIS-OXY PH CONDUCT BAT-LOAD
ft cfs F mg/l su umho/cm volt
Ccp-Rev Ccp-Rev Ccp-Rev Ccp-Rev Ccp-Rev Ccp-Rev Ccp-Rev
(America/Chicago)
07/11 00:00 3.21 111 84.18 0.12 7.10 772 11.94
07/11 01:00 3.21 111 83.28 0.09 7.10 769 11.94
07/11 02:00 3.21 111 82.47 0.05 7.13 788 11.93
07/11 03:00 3.22 113 81.68 0.06 7.15 784 11.92
07/11 04:00 3.25 118 81.10 0.11 7.24 804 11.91
07/11 05:00 3.27 122 80.69 0.18 7.23 805 11.91
07/11 06:00 3.29 125 80.26 0.35 7.32 809 11.90
07/11 07:00 3.29 125 79.92 0.20 7.30 800 11.90
07/11 08:00 3.29 125 80.15 0.80 7.33 792 11.91
07/11 09:00 3.29 125 81.23 0.96 7.39 753 12.01
07/11 10:00 3.29 125 83.12 3.75 7.21 739 12.10
07/11 11:00 3.28 123 85.46 2.74 7.16 722 12.80
07/11 12:00 3.28 123 87.96 3.94 7.05 735 12.93
07/11 13:00 3.28 123 90.50 3.47 7.05 756 12.83
07/11 14:00 3.27 122 92.57 3.66 6.98 790 12.96
07/11 15:00 3.27 122 94.32 3.20 6.99 794 12.98
07/11 16:00 3.27 122 95.18 2.80 6.98 796 12.96
07/11 17:00 3.26 120 95.23 2.05 7.00 774 12.59
07/11 18:00 3.25 118 94.12 1.91 7.10 805 12.40
07/11 19:00 3.24 116 92.79 1.10 7.01 802 12.36
07/11 20:00 3.24 116 91.53 1.00 6.93 836 12.17
07/11 21:00 3.23 114 90.18 0.42 7.01 836 12.00
07/11 22:00 3.22 113 89.08 0.09 7.00 857 11.91
07/11 23:00 3.22 113 88.65 0.14 7.00 850 11.91
Data processed at Sun 12Jul2026 04:25 GMT

NOTICE: If you are parsing this page

Please convert to using our Data API. Starting early 2026 we will be migrating to: https://water.usace.army.mil with modern pages rendered in JavaScript. When this migration completes you will no longer be able to scrape this page! CWMSDataAPI (CDA)

Timeseries IDs (TSIDs)

TSIDs used from left to right in the data table
HARR.Stage.Inst.1Hour.0.Ccp-Rev
HARR.Flow.Inst.1Hour.0.Ccp-Rev
HARR.Temp-Water.Inst.1Hour.0.Ccp-Rev
HARR.Conc-DO.Inst.1Hour.0.Ccp-Rev
HARR.pH.Inst.1Hour.0.Ccp-Rev
HARR.Cond-Water.Inst.1Hour.0.Ccp-Rev
HARR.Volt-Battery Load.Inst.1Hour.0.Ccp-Rev

                            

All information presented herein is the property of the government of the United States of America and may be revised or deleted at any time without prior notice. Dissemination of this information without the expressed written consent of the Public Affairs Office, Tulsa District U.S. Army Corps of Engineers is strictly prohibited. These data are gathered electronically and, as presented, have NOT undergone any form of quality control. These data are NOT guaranteed to be valid or correct.